createdAt,value
2023-01-13T00:00:56.091Z,292.53
2023-01-13T00:01:56.087Z,291.23
2023-01-13T00:02:56.079Z,289.94
2023-01-13T00:03:56.086Z,292.01
2023-01-13T00:04:56.086Z,289.94
2023-01-13T00:05:56.050Z,290.20
2023-01-13T00:06:56.019Z,291.75
2023-01-13T00:07:56.027Z,289.43
2023-01-13T00:08:56.009Z,289.69
2023-01-13T00:09:56.006Z,287.40
2023-01-13T00:10:55.995Z,285.90
2023-01-13T00:11:55.980Z,287.91
2023-01-13T00:12:55.964Z,289.43
2023-01-13T00:13:55.959Z,287.66
2023-01-13T00:14:55.969Z,288.92
2023-01-13T00:15:56.008Z,290.46
2023-01-13T00:16:55.927Z,288.42
2023-01-13T00:17:55.905Z,287.91
2023-01-13T00:18:55.895Z,289.43
2023-01-13T00:19:55.897Z,287.15
2023-01-13T00:20:55.903Z,288.16
2023-01-13T00:21:55.878Z,289.69
2023-01-13T00:22:55.857Z,290.46
2023-01-13T00:23:55.849Z,291.23
2023-01-13T00:24:55.842Z,292.01
2023-01-13T00:25:55.824Z,288.92
2023-01-13T00:26:55.846Z,288.42
2023-01-13T00:27:55.824Z,288.42
2023-01-13T00:28:55.795Z,289.94
2023-01-13T00:29:55.782Z,290.71
2023-01-13T00:30:55.791Z,289.18
2023-01-13T00:31:55.791Z,289.18
2023-01-13T00:32:55.760Z,291.23
2023-01-13T00:33:55.735Z,290.71
2023-01-13T00:34:55.727Z,290.97
2023-01-13T00:35:55.729Z,292.53
2023-01-13T00:36:55.704Z,292.79
2023-01-13T00:37:55.704Z,289.94
2023-01-13T00:38:55.684Z,288.67
2023-01-13T00:39:55.666Z,290.46
2023-01-13T00:40:55.663Z,288.92
2023-01-13T00:41:55.684Z,291.23
2023-01-13T00:42:55.664Z,288.67
2023-01-13T00:43:55.626Z,290.20
2023-01-13T00:44:55.657Z,290.97
2023-01-13T00:45:55.595Z,290.20
2023-01-13T00:46:55.598Z,288.16
2023-01-13T00:47:55.576Z,290.20
2023-01-13T00:48:55.585Z,290.46
2023-01-13T00:49:55.577Z,290.97
2023-01-13T00:50:55.564Z,293.84
2023-01-13T00:51:55.537Z,292.27
2023-01-13T00:52:55.546Z,291.49
2023-01-13T00:53:55.537Z,295.43
2023-01-13T00:54:55.515Z,294.37
2023-01-13T00:55:55.507Z,294.37
2023-01-13T00:56:55.484Z,297.03
2023-01-13T00:57:55.500Z,295.43
2023-01-13T00:58:55.463Z,296.23
2023-01-13T00:59:55.464Z,295.96
2023-01-13T01:00:55.521Z,297.03
2023-01-13T01:01:55.702Z,296.49
2023-01-13T01:02:55.433Z,300.29
2023-01-13T01:03:55.411Z,295.43
2023-01-13T01:04:55.426Z,295.16
2023-01-13T01:05:55.412Z,296.49
2023-01-13T01:06:55.377Z,298.38
2023-01-13T01:07:55.381Z,297.84
2023-01-13T01:08:55.365Z,297.84
2023-01-13T01:09:55.376Z,299.47
2023-01-13T01:10:55.330Z,298.92
2023-01-13T01:11:55.334Z,297.84
2023-01-13T01:12:55.352Z,299.20
2023-01-13T01:13:55.311Z,300.29
2023-01-13T01:14:55.318Z,298.11
2023-01-13T01:15:55.304Z,301.40
2023-01-13T01:16:55.284Z,300.84
2023-01-13T01:17:55.272Z,299.74
2023-01-13T01:18:55.256Z,300.29
2023-01-13T01:19:55.256Z,300.57
2023-01-13T01:20:55.215Z,301.12
2023-01-13T01:21:55.212Z,302.23
2023-01-13T01:22:55.247Z,303.07
2023-01-13T01:23:55.204Z,301.95
2023-01-13T01:24:55.171Z,300.29
2023-01-13T01:25:55.174Z,298.65
2023-01-13T01:26:55.156Z,301.40
2023-01-13T01:27:55.167Z,298.11
2023-01-13T01:28:55.129Z,298.38
2023-01-13T01:29:55.138Z,300.57
2023-01-13T01:30:55.114Z,298.11
2023-01-13T01:31:55.102Z,300.57
2023-01-13T01:32:55.097Z,298.92
2023-01-13T01:33:55.134Z,297.03
2023-01-13T01:34:55.064Z,298.92
2023-01-13T01:35:55.059Z,300.02
2023-01-13T01:36:55.052Z,296.76
2023-01-13T01:37:55.068Z,298.92
2023-01-13T01:38:55.032Z,301.12
2023-01-13T01:39:55.043Z,298.38
2023-01-13T01:40:55.009Z,298.38
2023-01-13T01:41:55.017Z,301.12
2023-01-13T01:42:54.983Z,298.38
2023-01-13T01:43:54.978Z,299.47
2023-01-13T01:44:54.977Z,300.57
2023-01-13T01:45:54.980Z,299.20
2023-01-13T01:46:54.992Z,298.38
2023-01-13T01:47:54.949Z,300.29
2023-01-13T01:48:54.916Z,298.38
2023-01-13T01:49:54.919Z,299.74
2023-01-13T01:50:54.913Z,298.92
2023-01-13T01:51:54.891Z,298.38
2023-01-13T01:52:54.877Z,298.92
2023-01-13T01:53:54.871Z,299.47
2023-01-13T01:54:54.849Z,298.92
2023-01-13T01:55:54.851Z,296.76
2023-01-13T01:56:54.819Z,297.84
2023-01-13T01:57:54.820Z,297.84
2023-01-13T01:58:54.828Z,298.65
2023-01-13T01:59:54.808Z,297.84
2023-01-13T02:00:54.958Z,299.20
2023-01-13T02:01:54.942Z,298.92
2023-01-13T02:02:54.787Z,299.74
2023-01-13T02:03:54.752Z,298.92
2023-01-13T02:04:54.735Z,300.57
2023-01-13T02:05:54.738Z,298.92
2023-01-13T02:06:54.735Z,301.40
2023-01-13T02:07:54.742Z,300.84
2023-01-13T02:08:54.737Z,301.12
2023-01-13T02:09:54.685Z,302.79
2023-01-13T02:10:54.671Z,302.79
2023-01-13T02:11:54.684Z,302.79
2023-01-13T02:12:54.655Z,302.23
2023-01-13T02:13:54.647Z,302.51
2023-01-13T02:14:54.628Z,303.35
2023-01-13T02:15:54.634Z,302.79
2023-01-13T02:16:54.621Z,301.40
2023-01-13T02:17:54.602Z,302.51
2023-01-13T02:18:54.608Z,302.51
2023-01-13T02:19:54.580Z,303.63
2023-01-13T02:20:54.568Z,302.79
2023-01-13T02:21:54.604Z,304.76
2023-01-13T02:22:54.563Z,303.91
2023-01-13T02:23:54.539Z,305.04
2023-01-13T02:24:54.561Z,307.33
2023-01-13T02:25:54.570Z,304.19
2023-01-13T02:26:54.504Z,303.63
2023-01-13T02:27:54.521Z,304.76
2023-01-13T02:28:54.473Z,303.91
2023-01-13T02:29:54.458Z,302.51
2023-01-13T02:30:54.453Z,303.07
2023-01-13T02:31:54.483Z,303.07
2023-01-13T02:32:54.488Z,302.51
2023-01-13T02:33:54.439Z,301.12
2023-01-13T02:34:54.420Z,302.23
2023-01-13T02:35:54.407Z,302.23
2023-01-13T02:36:54.396Z,303.91
2023-01-13T02:37:54.373Z,301.12
2023-01-13T02:38:54.399Z,300.02
2023-01-13T02:39:54.373Z,299.47
2023-01-13T02:40:54.358Z,299.74
2023-01-13T02:41:54.349Z,300.29
2023-01-13T02:42:54.353Z,301.12
2023-01-13T02:43:54.315Z,301.67
2023-01-13T02:44:54.309Z,300.02
2023-01-13T02:45:54.324Z,298.11
2023-01-13T02:46:54.309Z,299.20
2023-01-13T02:47:54.297Z,298.38
2023-01-13T02:48:54.266Z,299.20
2023-01-13T02:49:54.265Z,297.84
2023-01-13T02:50:54.227Z,298.92
2023-01-13T02:51:54.238Z,298.92
2023-01-13T02:52:54.228Z,298.38
2023-01-13T02:53:54.239Z,297.57
2023-01-13T02:54:54.256Z,296.49
2023-01-13T02:55:54.173Z,296.49
2023-01-13T02:56:54.163Z,295.16
2023-01-13T02:57:54.191Z,296.23
2023-01-13T02:58:54.227Z,295.16
2023-01-13T02:59:54.150Z,295.16
2023-01-13T03:00:54.183Z,295.16
2023-01-13T03:01:54.258Z,296.49
2023-01-13T03:02:54.138Z,294.89
2023-01-13T03:03:54.092Z,294.63
2023-01-13T03:04:54.169Z,294.37
2023-01-13T03:05:54.107Z,294.89
2023-01-13T03:06:54.111Z,293.31
2023-01-13T03:07:54.067Z,293.05
2023-01-13T03:08:54.099Z,292.53
2023-01-13T03:09:54.081Z,294.10
2023-01-13T03:10:54.057Z,293.58
2023-01-13T03:11:54.048Z,292.53
2023-01-13T03:12:54.043Z,293.05
2023-01-13T03:13:53.995Z,292.01
2023-01-13T03:14:54.039Z,291.49
2023-01-13T03:15:53.993Z,291.75
2023-01-13T03:16:54.049Z,292.53
2023-01-13T03:17:53.973Z,292.27
2023-01-13T03:18:53.955Z,290.97
2023-01-13T03:19:53.944Z,292.27
2023-01-13T03:20:53.955Z,292.01
2023-01-13T03:21:53.940Z,291.75
2023-01-13T03:22:53.934Z,293.05
2023-01-13T03:23:53.895Z,292.27
2023-01-13T03:24:53.935Z,290.71
2023-01-13T03:25:53.870Z,292.53
2023-01-13T03:26:53.929Z,292.79
2023-01-13T03:27:53.880Z,295.16
2023-01-13T03:28:53.863Z,295.16
2023-01-13T03:29:53.826Z,292.79
2023-01-13T03:30:53.854Z,292.53
2023-01-13T03:31:53.800Z,293.31
2023-01-13T03:32:53.808Z,292.53
2023-01-13T03:33:53.821Z,292.27
2023-01-13T03:34:53.775Z,292.53
2023-01-13T03:35:53.796Z,290.20
2023-01-13T03:36:53.781Z,292.01
2023-01-13T03:37:53.788Z,294.37
2023-01-13T03:38:53.721Z,293.84
2023-01-13T03:39:53.699Z,294.63
2023-01-13T03:40:53.712Z,293.31
2023-01-13T03:41:53.731Z,294.63
2023-01-13T03:42:53.715Z,295.43
2023-01-13T03:43:53.689Z,294.10
2023-01-13T03:44:53.663Z,294.37
2023-01-13T03:45:53.749Z,295.16
2023-01-13T03:46:53.669Z,296.76
2023-01-13T03:47:53.608Z,294.10
2023-01-13T03:48:53.625Z,294.63
2023-01-13T03:49:53.648Z,294.89
2023-01-13T03:50:53.560Z,293.84
2023-01-13T03:51:53.619Z,293.58
2023-01-13T03:52:53.599Z,294.37
2023-01-13T03:53:53.542Z,296.49
2023-01-13T03:54:53.578Z,294.10
2023-01-13T03:55:53.533Z,293.58
2023-01-13T03:56:53.524Z,293.05
2023-01-13T03:57:53.538Z,292.01
2023-01-13T03:58:53.496Z,290.71
2023-01-13T03:59:53.500Z,292.79
2023-01-13T04:00:53.633Z,292.27
2023-01-13T04:01:53.597Z,290.71
2023-01-13T04:02:53.454Z,290.20
2023-01-13T04:03:53.490Z,289.43
2023-01-13T04:04:53.440Z,290.46
2023-01-13T04:05:53.423Z,288.67
2023-01-13T04:06:53.423Z,289.43
2023-01-13T04:07:53.425Z,289.69
2023-01-13T04:08:53.371Z,290.20
2023-01-13T04:09:53.396Z,288.67
2023-01-13T04:10:53.385Z,288.67
2023-01-13T04:11:53.378Z,288.67
2023-01-13T04:12:53.383Z,289.18
2023-01-13T04:13:53.324Z,288.67
2023-01-13T04:14:53.319Z,290.46
2023-01-13T04:15:53.354Z,290.46
2023-01-13T04:16:53.352Z,289.94
2023-01-13T04:17:53.279Z,289.94
2023-01-13T04:18:53.282Z,287.15
2023-01-13T04:19:53.278Z,288.67
2023-01-13T04:20:53.259Z,288.42
2023-01-13T04:21:53.247Z,288.67
2023-01-13T04:22:53.249Z,286.40
2023-01-13T04:23:53.237Z,287.40
2023-01-13T04:24:53.241Z,284.66
2023-01-13T04:25:53.278Z,285.40
2023-01-13T04:26:53.231Z,283.43
2023-01-13T04:27:53.190Z,284.42
2023-01-13T04:28:53.243Z,282.46
2023-01-13T04:29:53.195Z,283.43
2023-01-13T04:30:53.280Z,284.42
2023-01-13T04:31:53.230Z,283.68
2023-01-13T04:32:53.183Z,283.68
2023-01-13T04:33:53.137Z,282.70
2023-01-13T04:34:53.133Z,282.94
2023-01-13T04:35:53.155Z,284.17
2023-01-13T04:36:53.118Z,283.43
2023-01-13T04:37:53.077Z,283.19
2023-01-13T04:38:53.125Z,282.94
2023-01-13T04:39:53.088Z,284.17
2023-01-13T04:40:53.084Z,282.70
2023-01-13T04:41:53.041Z,284.42
2023-01-13T05:12:53.469Z,343.34
2023-01-13T05:13:50.776Z,319.91
2023-01-13T05:14:50.774Z,305.61
2023-01-13T05:15:50.204Z,297.57
2023-01-13T05:16:50.137Z,292.27
2023-01-13T05:17:50.841Z,290.97
2023-01-13T05:18:50.148Z,286.65
2023-01-13T05:19:50.145Z,283.43
2023-01-13T05:20:50.119Z,280.52
2023-01-13T05:21:50.061Z,281.01
2023-01-13T05:22:50.042Z,279.33
2023-01-13T05:23:50.225Z,278.38
2023-01-13T05:24:50.044Z,278.15
2023-01-13T05:25:50.027Z,276.74
2023-01-13T05:26:50.368Z,276.27
2023-01-13T05:30:28.780Z,317.13
2023-01-13T05:31:28.868Z,299.74
2023-01-13T05:32:28.788Z,291.75
2023-01-13T05:33:28.750Z,286.90
2023-01-13T05:34:28.735Z,287.40
2023-01-13T05:35:28.783Z,283.92
2023-01-13T05:36:28.739Z,280.76
2023-01-13T05:37:28.763Z,277.21
2023-01-13T05:38:28.690Z,277.67
2023-01-13T05:39:28.685Z,278.15
2023-01-13T05:40:28.678Z,278.38
2023-01-13T05:41:28.746Z,277.44
2023-01-13T05:42:28.726Z,278.86
2023-01-13T05:43:28.840Z,277.21
2023-01-13T05:44:28.736Z,275.35
2023-01-13T05:45:28.782Z,276.51
2023-01-13T05:46:28.687Z,277.21
2023-01-13T05:47:28.642Z,278.15
2023-01-13T05:48:28.632Z,278.86
2023-01-13T05:49:28.623Z,276.74
2023-01-13T05:50:28.571Z,278.15
2023-01-13T05:51:28.613Z,277.91
2023-01-13T05:52:28.653Z,276.51
2023-01-13T05:53:28.710Z,277.21
2023-01-13T05:54:28.610Z,278.86
2023-01-13T05:55:28.561Z,276.74
2023-01-13T05:56:28.590Z,277.21
2023-01-13T05:57:28.540Z,275.35
2023-01-13T05:58:28.600Z,276.27
2023-01-13T05:59:28.584Z,276.27
2023-01-13T06:00:28.541Z,276.27
2023-01-13T06:01:28.675Z,274.88
2023-01-13T06:02:28.496Z,273.97
2023-01-13T06:03:28.597Z,273.97
2023-01-13T06:04:28.540Z,276.04
2023-01-13T06:05:28.430Z,275.35
2023-01-13T06:06:28.436Z,274.42
2023-01-13T06:07:28.495Z,273.97
2023-01-13T06:08:28.503Z,271.70
2023-01-13T06:09:28.532Z,272.60
2023-01-13T06:10:28.447Z,273.51
2023-01-13T06:11:28.420Z,273.97
2023-01-13T06:12:28.573Z,271.70
2023-01-13T06:13:28.382Z,272.60
2023-01-13T06:14:28.360Z,271.92
2023-01-13T06:15:28.373Z,272.15
2023-01-13T06:16:28.431Z,272.37
2023-01-13T06:17:28.322Z,272.15
2023-01-13T06:18:28.286Z,271.25
2023-01-13T06:19:28.338Z,271.02
2023-01-13T06:20:28.321Z,271.70
2023-01-13T06:21:28.234Z,272.15
2023-01-13T06:22:28.223Z,269.24
2023-01-13T06:23:28.252Z,269.02
2023-01-13T06:24:28.255Z,266.40
2023-01-13T06:25:28.231Z,267.49
2023-01-13T06:26:28.201Z,264.47
2023-01-13T06:27:28.178Z,265.97
2023-01-13T06:28:28.177Z,263.83
2023-01-13T06:29:28.217Z,264.26
2023-01-13T06:30:28.144Z,263.62
2023-01-13T06:31:28.199Z,262.57
2023-01-13T06:32:28.138Z,262.78
2023-01-13T06:33:28.146Z,260.89
2023-01-13T06:34:28.112Z,260.07
2023-01-13T06:35:28.095Z,258.23
2023-01-13T06:36:28.091Z,259.25
2023-01-13T06:37:28.062Z,257.62
2023-01-13T06:38:28.079Z,258.02
2023-01-13T06:39:28.048Z,255.61
2023-01-13T06:40:28.040Z,255.01
2023-01-13T06:41:28.028Z,253.24
2023-01-13T06:42:28.020Z,251.88
2023-01-13T06:43:28.053Z,252.46
2023-01-13T06:44:28.006Z,253.24
2023-01-13T06:45:28.007Z,252.08
2023-01-13T06:46:28.021Z,252.46
2023-01-13T06:47:27.979Z,249.01
2023-01-13T06:48:27.988Z,247.51
2023-01-13T06:49:27.976Z,245.11
2023-01-13T06:50:27.938Z,243.83
2023-01-13T06:51:27.904Z,242.39
2023-01-13T06:52:27.909Z,240.26
2023-01-13T06:53:27.930Z,238.86
2023-01-13T06:54:28.067Z,236.97
2023-01-13T06:55:28.023Z,233.43
2023-01-13T06:56:28.144Z,233.26
2023-01-13T06:57:27.886Z,231.12
2023-01-13T06:58:28.104Z,228.55
2023-01-13T06:59:27.888Z,225.10
2023-01-13T07:00:27.914Z,223.41
2023-01-13T07:01:27.956Z,222.81
2023-01-13T07:02:27.954Z,222.50
2023-01-13T07:03:27.860Z,221.75
2023-01-13T07:04:27.815Z,222.50
2023-01-13T07:05:27.818Z,222.35
2023-01-13T07:06:27.836Z,224.64
2023-01-13T07:07:27.845Z,223.41
2023-01-13T07:08:27.859Z,223.41
2023-01-13T07:09:27.772Z,225.87
2023-01-13T07:10:27.884Z,224.48
2023-01-13T07:11:27.767Z,224.79
2023-01-13T07:12:27.742Z,223.87
2023-01-13T07:13:27.737Z,226.18
2023-01-13T07:14:27.869Z,228.71
2023-01-13T07:15:27.743Z,229.99
2023-01-13T07:16:27.855Z,231.12
2023-01-13T07:17:27.661Z,233.43
2023-01-13T07:18:27.683Z,236.62
2023-01-13T07:19:27.660Z,241.68
2023-01-13T07:20:27.703Z,244.38
2023-01-13T07:21:27.661Z,248.83
2023-01-13T07:22:27.644Z,253.63
2023-01-13T07:23:27.608Z,255.21
2023-01-13T07:24:27.654Z,257.82
2023-01-13T07:25:27.682Z,262.99
2023-01-13T07:26:27.626Z,265.11
2023-01-13T07:27:27.615Z,266.62
2023-01-13T07:28:27.540Z,277.21
2023-01-13T07:29:27.592Z,280.05
2023-01-13T07:30:27.522Z,284.91
2023-01-13T07:31:27.554Z,287.91
2023-01-13T07:32:27.526Z,290.20
2023-01-13T07:33:27.505Z,293.05
2023-01-13T07:34:27.528Z,298.38
2023-01-13T07:35:27.494Z,295.43
2023-01-13T07:36:27.452Z,296.49
2023-01-13T07:37:27.481Z,295.96
2023-01-13T07:38:27.525Z,296.23
2023-01-13T07:39:27.518Z,298.65
2023-01-13T07:40:27.452Z,300.57
2023-01-13T07:41:27.462Z,302.79
2023-01-13T07:42:27.392Z,298.92
2023-01-13T07:43:27.413Z,300.29
2023-01-13T07:44:27.396Z,299.47
2023-01-13T07:45:27.445Z,302.23
2023-01-13T07:46:27.553Z,298.11
2023-01-13T07:47:27.336Z,300.29
2023-01-13T07:48:27.393Z,295.43
2023-01-13T07:49:27.327Z,299.47
2023-01-13T07:50:27.407Z,298.65
2023-01-13T07:51:27.343Z,295.43
2023-01-13T07:52:27.320Z,294.89
2023-01-13T07:53:27.319Z,296.76
2023-01-13T07:54:39.757Z,295.43
2023-01-13T07:55:28.300Z,292.27
2023-01-13T07:56:27.321Z,288.42
2023-01-13T07:57:27.282Z,287.66
2023-01-13T07:58:27.267Z,286.15
2023-01-13T07:59:27.288Z,281.01
2023-01-13T08:00:27.412Z,282.21
2023-01-13T08:01:27.358Z,286.90
2023-01-13T08:02:27.412Z,285.90
2023-01-13T08:03:27.210Z,283.19
2023-01-13T08:04:27.216Z,279.09
2023-01-13T08:05:27.258Z,279.57
2023-01-13T08:06:27.226Z,277.91
2023-01-13T08:07:27.170Z,276.97
2023-01-13T08:08:27.192Z,280.76
2023-01-13T08:09:27.234Z,281.25
2023-01-13T08:10:27.160Z,281.97
2023-01-13T08:11:27.126Z,275.81
2023-01-13T08:12:27.227Z,275.11
2023-01-13T08:13:27.075Z,281.01
2023-01-13T08:14:27.106Z,276.51
2023-01-13T08:15:27.073Z,280.05
2023-01-13T08:16:27.218Z,275.58
2023-01-13T08:17:27.105Z,275.81
2023-01-13T08:18:27.037Z,280.29
2023-01-13T08:21:45.189Z,324.66
2023-01-13T08:22:45.229Z,301.12
2023-01-13T08:23:45.148Z,294.37
2023-01-13T08:24:45.104Z,293.31
2023-01-13T08:25:45.132Z,285.90
2023-01-13T08:26:44.744Z,286.40
2023-01-13T08:27:44.742Z,290.71
2023-01-13T08:28:44.771Z,286.90
2023-01-13T08:29:44.710Z,286.40
2023-01-13T08:30:44.758Z,285.16
2023-01-13T08:31:44.699Z,283.68
2023-01-13T08:32:44.703Z,287.91
2023-01-13T08:33:44.704Z,284.42
2023-01-13T08:34:44.711Z,284.42
2023-01-13T08:35:44.663Z,284.42
2023-01-13T08:36:44.663Z,285.16
2023-01-13T08:37:44.665Z,282.94
2023-01-13T08:38:44.627Z,282.94
2023-01-13T08:39:44.617Z,280.29
2023-01-13T08:40:44.608Z,286.15
2023-01-13T08:41:44.644Z,281.97
2023-01-13T08:42:45.926Z,278.62
2023-01-13T08:43:44.601Z,280.76
2023-01-13T08:44:44.642Z,280.76
2023-01-13T08:45:44.770Z,274.42
2023-01-13T08:46:44.567Z,275.35
2023-01-13T08:47:44.549Z,274.88
2023-01-13T08:48:44.555Z,273.51
2023-01-13T08:49:44.542Z,272.60
2023-01-13T08:50:44.489Z,274.20
2023-01-13T08:51:44.558Z,273.74
2023-01-13T08:52:44.499Z,272.15
2023-01-13T08:53:44.513Z,272.37
2023-01-13T08:54:44.460Z,271.70
2023-01-13T08:55:44.435Z,272.83
2023-01-13T08:56:44.513Z,274.65
2023-01-13T08:57:44.419Z,276.97
2023-01-13T08:58:44.405Z,273.05
2023-01-13T08:59:44.408Z,274.20
2023-01-13T09:00:44.437Z,273.97
2023-01-13T09:01:44.458Z,275.35
2023-01-13T09:02:44.449Z,278.86
2023-01-13T09:03:44.352Z,282.46
2023-01-13T09:04:44.420Z,280.05
2023-01-13T09:05:44.336Z,280.05
2023-01-13T09:06:44.342Z,287.66
2023-01-13T09:07:44.430Z,281.73
2023-01-13T09:08:44.282Z,285.16
2023-01-13T09:09:44.333Z,287.66
2023-01-13T09:10:44.407Z,290.46
2023-01-13T09:11:44.297Z,296.23
2023-01-13T09:12:44.280Z,294.10
2023-01-13T09:13:44.300Z,297.30
2023-01-13T09:14:44.254Z,298.11
2023-01-13T09:15:44.272Z,302.23
2023-01-13T09:16:44.227Z,303.07
2023-01-13T09:17:44.284Z,308.77
2023-01-13T09:18:44.234Z,310.52
2023-01-13T09:19:44.243Z,308.48
2023-01-13T09:20:44.175Z,307.04
2023-01-13T09:21:45.651Z,313.79
2023-01-13T09:22:46.441Z,311.11
2023-01-13T09:23:44.173Z,316.21
2023-01-13T09:24:44.154Z,314.39
2023-01-13T09:25:44.125Z,319.29
2023-01-13T09:26:44.128Z,319.29
2023-01-13T09:27:44.131Z,320.54
2023-01-13T09:28:44.155Z,315.00
2023-01-13T09:29:44.118Z,319.29
2023-01-13T09:30:44.157Z,314.39
2023-01-13T09:31:44.507Z,317.13
2023-01-13T09:32:44.034Z,312.60
2023-01-13T09:33:44.034Z,314.39
2023-01-13T09:34:44.142Z,315.00
2023-01-13T09:35:44.052Z,319.60
2023-01-13T09:36:44.022Z,315.60
2023-01-13T09:37:43.968Z,319.60
2023-01-13T09:38:44.033Z,315.60
2023-01-13T09:39:43.953Z,320.54
2023-01-13T09:40:44.254Z,317.43
2023-01-13T09:41:44.066Z,315.30
2023-01-13T09:42:43.968Z,321.48
2023-01-13T09:43:44.043Z,314.39
2023-01-13T09:44:43.941Z,321.48
2023-01-13T09:45:43.933Z,316.82
2023-01-13T09:46:44.006Z,318.05
2023-01-13T09:47:43.901Z,315.00
2023-01-13T09:48:43.938Z,316.82
2023-01-13T09:49:43.872Z,316.82
2023-01-13T09:50:43.944Z,319.91
2023-01-13T09:51:44.118Z,321.79
2023-01-13T09:52:43.829Z,324.66
2023-01-13T09:53:43.897Z,324.34
2023-01-13T09:54:43.854Z,328.56
2023-01-13T09:55:43.803Z,325.62
2023-01-13T09:56:43.807Z,332.22
2023-01-13T09:57:43.767Z,327.58
2023-01-13T09:58:43.771Z,335.27
2023-01-13T09:59:43.871Z,340.85
2023-01-13T10:00:43.760Z,341.20
2023-01-13T10:01:43.801Z,346.24
2023-01-13T10:02:43.759Z,348.45
2023-01-13T10:03:43.793Z,350.68
2023-01-13T10:04:43.724Z,352.95
2023-01-13T10:05:43.755Z,356.01
2023-01-13T10:06:43.736Z,359.52
2023-01-13T10:07:43.706Z,363.10
2023-01-13T10:08:43.694Z,367.16
2023-01-13T10:09:43.808Z,367.99
2023-01-13T10:10:43.653Z,371.32
2023-01-13T10:11:43.604Z,373.01
2023-01-13T10:12:43.604Z,376.00
2023-01-13T10:13:43.594Z,377.73
2023-01-13T10:14:43.634Z,374.28
2023-01-13T10:15:43.685Z,379.74
2023-01-13T10:16:43.626Z,377.30
2023-01-13T10:17:43.587Z,380.61
2023-01-13T10:18:43.548Z,384.56
2023-01-13T10:19:43.549Z,380.61
2023-01-13T10:20:43.518Z,389.05
2023-01-13T10:21:43.511Z,389.96
2023-01-13T10:22:43.573Z,390.65
2023-01-13T10:23:43.484Z,392.25
2023-01-13T10:24:43.475Z,391.10
2023-01-13T10:25:43.498Z,394.58
2023-01-13T10:26:43.455Z,394.58
2023-01-13T10:27:43.708Z,393.88
2023-01-13T10:28:43.449Z,394.81
2023-01-13T10:29:43.507Z,394.81
2023-01-13T10:30:43.462Z,396.92
2023-01-13T10:31:43.417Z,399.54
2023-01-13T10:32:43.421Z,396.69
2023-01-13T10:33:43.362Z,400.50
2023-01-13T10:34:43.376Z,400.98
2023-01-13T10:35:43.355Z,406.85
2023-01-13T10:36:43.374Z,405.12
2023-01-13T10:37:43.346Z,403.16
2023-01-13T10:38:43.324Z,402.68
2023-01-13T10:39:43.317Z,400.02
2023-01-13T10:40:43.350Z,401.46
2023-01-13T10:41:43.288Z,406.11
2023-01-13T10:42:43.265Z,408.85
2023-01-13T10:43:43.295Z,410.11
2023-01-13T10:44:43.302Z,412.90
2023-01-13T10:45:43.229Z,416.51
2023-01-13T10:46:43.288Z,415.99
2023-01-13T10:47:43.219Z,419.65
2023-01-13T10:48:43.240Z,418.34
2023-01-13T10:49:43.250Z,422.58
2023-01-13T10:50:43.187Z,425.82
2023-01-13T10:51:43.219Z,427.73
2023-01-13T10:52:43.208Z,430.49
2023-01-13T10:53:43.165Z,431.61
2023-01-13T10:54:43.216Z,435.55
2023-01-13T10:55:43.125Z,433.29
2023-01-13T10:56:43.132Z,434.42
2023-01-13T10:57:43.104Z,436.12
2023-01-13T10:58:43.115Z,434.42
2023-01-13T10:59:43.121Z,436.41
2023-01-13T11:00:43.087Z,436.41
2023-01-13T11:01:43.171Z,441.90
2023-01-13T11:02:43.263Z,437.27
2023-01-13T11:03:43.174Z,443.67
2023-01-13T11:04:43.144Z,443.37
2023-01-13T11:05:43.008Z,448.44
2023-01-13T11:06:43.048Z,450.87
2023-01-13T11:07:43.023Z,447.84
2023-01-13T11:08:44.256Z,447.24
2023-01-13T11:09:42.976Z,448.74
2023-01-13T11:10:43.047Z,451.48
2023-01-13T11:11:42.982Z,452.40
2023-01-13T11:12:42.957Z,460.20
2023-01-13T11:13:43.133Z,458.30
2023-01-13T11:14:42.917Z,460.20
2023-01-13T11:15:42.958Z,462.11
2023-01-13T11:16:52.994Z,464.69
2023-01-13T11:17:43.903Z,468.28
2023-01-13T11:18:42.900Z,464.69
2023-01-13T11:19:42.896Z,471.59
2023-01-13T11:20:42.843Z,468.94
2023-01-13T11:21:42.848Z,471.26
2023-01-13T11:22:42.875Z,466.64
2023-01-13T11:23:42.842Z,469.27
2023-01-13T11:24:42.834Z,470.60
2023-01-13T11:25:42.825Z,473.27
2023-01-13T11:26:42.791Z,474.61
2023-01-13T11:27:42.808Z,477.33
2023-01-13T11:28:42.792Z,478.36
2023-01-13T11:29:49.322Z,482.16
2023-01-13T11:30:50.921Z,484.97
2023-01-13T11:31:42.746Z,482.86
2023-01-13T11:32:42.703Z,481.47
2023-01-13T11:33:42.689Z,484.62
2023-01-13T11:34:42.693Z,483.21
2023-01-13T11:35:42.657Z,481.12
2023-01-13T11:36:42.667Z,479.05
2023-01-13T11:37:42.679Z,481.12
2023-01-13T11:38:42.632Z,483.56
2023-01-13T11:39:42.610Z,480.77
2023-01-13T11:40:42.632Z,484.27
2023-01-13T11:41:42.625Z,486.38
2023-01-13T11:42:42.637Z,482.86
2023-01-13T11:43:42.583Z,483.21
2023-01-13T11:44:42.559Z,480.77
2023-01-13T11:45:42.566Z,484.97
2023-01-13T11:46:42.629Z,486.74
2023-01-13T11:47:42.521Z,490.68
2023-01-13T11:48:42.520Z,488.52
2023-01-13T11:49:42.591Z,488.88
2023-01-13T11:50:42.511Z,489.60
2023-01-13T11:51:42.489Z,489.24
2023-01-13T11:52:42.523Z,488.88
2023-01-13T11:53:42.593Z,489.96
2023-01-13T11:54:42.476Z,491.40
2023-01-13T11:55:42.466Z,492.13
2023-01-13T11:56:42.447Z,489.24
2023-01-13T11:57:42.434Z,490.68
2023-01-13T11:58:50.638Z,493.95
2023-01-13T11:59:43.442Z,494.32
2023-01-13T12:00:42.418Z,498.01
2023-01-13T12:01:42.450Z,496.89
2023-01-13T12:02:42.373Z,496.52
2023-01-13T12:03:42.353Z,497.27
2023-01-13T12:04:42.350Z,496.52
2023-01-13T12:05:42.381Z,498.38
2023-01-13T12:06:42.332Z,496.15
2023-01-13T12:07:42.343Z,499.13
2023-01-13T12:08:42.297Z,501.00
2023-01-13T12:09:42.300Z,493.58
2023-01-13T12:10:42.291Z,494.32
2023-01-13T12:11:42.283Z,495.79
2023-01-13T12:12:42.247Z,496.89
2023-01-13T12:13:42.256Z,494.68
2023-01-13T12:14:42.260Z,497.64
2023-01-13T12:15:42.226Z,499.13
2023-01-13T12:16:42.331Z,498.01
2023-01-13T12:17:42.225Z,502.89
2023-01-13T12:18:42.194Z,497.27
2023-01-13T12:19:42.175Z,498.38
2023-01-13T12:20:42.170Z,494.32
2023-01-13T12:21:42.192Z,502.13
2023-01-13T12:22:42.163Z,499.50
2023-01-13T12:23:42.153Z,502.89
2023-01-13T12:24:42.129Z,510.20
2023-01-13T12:25:42.120Z,507.87
2023-01-13T12:26:42.128Z,512.95
2023-01-13T12:27:42.087Z,513.74
2023-01-13T12:28:42.115Z,518.13
2023-01-13T12:29:42.110Z,518.94
2023-01-13T12:30:42.065Z,520.56
2023-01-13T12:31:42.091Z,521.78
2023-01-13T12:32:42.045Z,518.53
2023-01-13T12:33:42.103Z,525.48
2023-01-13T12:34:42.485Z,527.14
2023-01-13T12:35:42.241Z,530.07
2023-01-13T12:36:42.066Z,533.04
2023-01-13T12:37:42.133Z,530.49
2023-01-13T12:38:42.095Z,533.04
2023-01-13T12:39:41.978Z,531.76
2023-01-13T12:40:42.075Z,533.89
2023-01-13T12:41:41.948Z,529.65
2023-01-13T12:42:42.027Z,527.56
2023-01-13T12:43:41.947Z,530.49
2023-01-13T12:44:41.925Z,533.89
2023-01-13T12:45:41.924Z,533.89
2023-01-13T12:46:41.897Z,529.65
2023-01-13T12:47:41.923Z,530.07
2023-01-13T12:48:41.869Z,528.39
2023-01-13T12:49:41.886Z,527.56
2023-01-13T12:50:41.846Z,521.37
2023-01-13T12:51:41.844Z,523.01
2023-01-13T12:52:41.825Z,518.53
2023-01-13T12:53:41.945Z,518.13
2023-01-13T12:54:41.862Z,518.94
2023-01-13T12:55:41.796Z,514.93
2023-01-13T12:56:41.797Z,511.38
2023-01-13T12:57:41.796Z,514.93
2023-01-13T12:58:41.774Z,513.74
2023-01-13T12:59:41.735Z,514.93
2023-01-13T13:00:41.775Z,517.73
2023-01-13T13:01:41.809Z,514.14
2023-01-13T13:02:41.788Z,519.34
2023-01-13T13:03:41.724Z,514.53